Time;durP1;ratioP1;P1;durP2;ratioP2;P2;SDS_P1;SDS_P2;PMS_P1;PMS_P2;Temp;Humidity;BMP_temperature;BMP_pressure;BME280_temperature;BME280_humidity;BME280_pressure;Samples;Min_cycle;Max_cycle;Signal;HPM_P1;HPM_P2
2021/11/06 00:00:45;;;;;;;189.07;174.30;;;8.10;99.90;;;;;;5037094;28;20406;-86
2021/11/06 00:03:14;;;;;;;200.23;185.00;;;8.10;99.90;;;;;;5037161;28;20180;-86
2021/11/06 00:05:40;;;;;;;177.45;163.20;;;8.10;99.90;;;;;;5037427;28;20408;-86
2021/11/06 00:08:06;;;;;;;218.50;202.55;;;8.20;99.90;;;;;;5036174;28;20192;-86
2021/11/06 00:10:32;;;;;;;236.97;220.70;;;8.20;99.90;;;;;;5037043;28;20169;-86
2021/11/06 00:12:58;;;;;;;231.27;215.15;;;8.20;99.90;;;;;;5034892;28;20451;-85
2021/11/06 00:15:24;;;;;;;245.35;228.52;;;8.20;99.90;;;;;;5036956;28;20224;-86
2021/11/06 00:17:50;;;;;;;286.67;268.40;;;8.20;99.90;;;;;;5039513;28;20191;-86
2021/11/06 00:20:17;;;;;;;297.40;278.58;;;8.20;99.90;;;;;;5039800;28;20396;-86
2021/11/06 00:22:43;;;;;;;285.77;267.02;;;8.20;99.90;;;;;;5039512;28;20169;-87
2021/11/06 00:25:10;;;;;;;271.30;253.63;;;8.10;99.90;;;;;;5038434;28;20188;-87
2021/11/06 00:27:38;;;;;;;225.15;209.18;;;8.10;99.90;;;;;;5040934;28;20399;-86
2021/11/06 00:30:06;;;;;;;229.93;213.80;;;8.10;99.90;;;;;;5036485;28;20196;-87
2021/11/06 00:32:32;;;;;;;211.45;195.43;;;8.10;99.90;;;;;;5037788;28;20193;-86
2021/11/06 00:34:58;;;;;;;176.15;161.77;;;8.00;99.90;;;;;;5039169;28;20199;-87
2021/11/06 00:37:24;;;;;;;174.57;160.60;;;8.00;99.90;;;;;;5036433;28;20169;-86
2021/11/06 00:39:50;;;;;;;149.40;136.38;;;8.00;99.90;;;;;;5037644;28;20846;-86
2021/11/06 00:42:25;;;;;;;155.60;142.18;;;7.90;99.90;;;;;;5123691;22;20308;-88
2021/11/06 00:44:51;;;;;;;142.25;128.88;;;7.80;99.90;;;;;;5033535;28;20206;-88
2021/11/06 00:47:23;;;;;;;138.80;125.77;;;7.80;99.90;;;;;;5033816;28;20509;-89
2021/11/06 00:50:17;;;;;;;163.52;149.75;;;7.70;99.90;;;;;;5031955;28;20615;-89
2021/11/06 00:53:06;;;;;;;154.10;139.95;;;7.60;99.90;;;;;;5031497;28;20201;-89
2021/11/06 00:55:40;;;;;;;151.43;137.45;;;7.60;99.90;;;;;;5021481;28;20179;-88
2021/11/06 00:58:15;;;;;;;155.45;141.40;;;7.50;99.90;;;;;;5032291;28;20653;-88
2021/11/06 01:00:49;;;;;;;164.32;150.60;;;7.40;99.90;;;;;;5031428;28;20176;-88
2021/11/06 01:03:17;;;;;;;159.48;145.60;;;7.30;99.90;;;;;;5033676;28;20161;-88
2021/11/06 01:05:43;;;;;;;168.48;154.55;;;7.30;99.90;;;;;;5034570;28;20223;-87
2021/11/06 01:08:09;;;;;;;184.20;169.80;;;7.30;99.90;;;;;;5039031;28;20181;-87
2021/11/06 01:10:37;;;;;;;151.10;137.73;;;7.20;99.90;;;;;;5036773;28;20174;-87
2021/11/06 01:13:03;;;;;;;170.35;155.35;;;7.10;99.90;;;;;;5038959;28;20260;-88
2021/11/06 01:15:32;;;;;;;144.90;132.05;;;7.10;99.90;;;;;;5037441;28;20528;-87
2021/11/06 01:17:58;;;;;;;150.55;137.55;;;7.10;99.90;;;;;;5035264;28;20173;-88
2021/11/06 01:20:33;;;;;;;167.95;154.18;;;7.00;99.90;;;;;;5033429;28;20629;-88
2021/11/06 01:23:02;;;;;;;156.10;142.32;;;7.00;99.90;;;;;;5033145;28;20184;-88
2021/11/06 01:25:35;;;;;;;164.13;150.43;;;6.90;99.90;;;;;;5031603;28;20659;-89
2021/11/06 01:28:09;;;;;;;158.35;145.18;;;6.90;99.90;;;;;;5034259;28;20193;-88
2021/11/06 01:30:38;;;;;;;155.48;142.25;;;6.80;99.90;;;;;;5033333;28;20188;-88
2021/11/06 01:33:12;;;;;;;163.02;149.57;;;6.80;99.90;;;;;;5037892;28;20185;-88
2021/11/06 01:36:03;;;;;;;163.60;150.27;;;6.80;99.90;;;;;;5039170;28;20504;-88
2021/11/06 01:38:32;;;;;;;136.35;123.68;;;6.70;99.90;;;;;;5040915;28;20185;-87
2021/11/06 01:40:59;;;;;;;143.70;130.77;;;6.70;99.90;;;;;;5039447;28;20176;-88
2021/11/06 01:43:27;;;;;;;130.40;117.68;;;6.70;99.90;;;;;;5040328;28;20181;-88
2021/11/06 01:46:05;;;;;;;142.48;129.35;;;6.60;99.90;;;;;;5037408;28;20260;-88
2021/11/06 01:48:34;;;;;;;147.48;134.30;;;6.50;99.90;;;;;;5039803;28;20188;-87
2021/11/06 01:51:00;;;;;;;146.07;133.35;;;6.50;99.90;;;;;;5039089;28;20560;-88
2021/11/06 01:53:46;;;;;;;155.48;142.13;;;6.50;99.90;;;;;;5040278;28;20181;-89
2021/11/06 01:56:15;;;;;;;152.40;139.30;;;6.50;99.90;;;;;;5035408;28;20196;-88
2021/11/06 01:58:43;;;;;;;161.75;147.98;;;6.40;99.90;;;;;;5036214;28;20193;-88
2021/11/06 02:01:27;;;;;;;136.15;123.18;;;6.40;99.90;;;;;;5035714;28;20169;-89
2021/11/06 02:03:55;;;;;;;161.85;148.18;;;6.30;99.90;;;;;;5036298;28;20156;-89
2021/11/06 02:06:24;;;;;;;159.13;145.50;;;6.40;99.90;;;;;;5034993;28;20536;-88
2021/11/06 02:08:50;;;;;;;153.18;139.88;;;6.30;99.90;;;;;;5036405;28;20609;-88
2021/11/06 02:11:16;;;;;;;148.27;135.37;;;6.20;99.90;;;;;;5036960;28;20240;-88
2021/11/06 02:13:45;;;;;;;172.57;158.35;;;6.20;99.90;;;;;;5036927;28;20439;-88
2021/11/06 02:16:29;;;;;;;145.65;132.85;;;6.20;99.90;;;;;;5034186;28;20178;-88
2021/11/06 02:19:07;;;;;;;139.00;126.20;;;6.20;99.90;;;;;;5035334;28;20297;-88
2021/11/06 02:21:36;;;;;;;147.32;134.20;;;6.10;99.90;;;;;;5035553;28;20535;-88
2021/11/06 02:24:03;;;;;;;146.25;132.98;;;6.10;99.90;;;;;;5036536;28;20665;-88
2021/11/06 02:26:34;;;;;;;174.52;160.77;;;6.10;99.90;;;;;;5035156;28;20540;-88
2021/11/06 02:29:04;;;;;;;150.52;137.57;;;6.10;99.90;;;;;;5035090;28;20189;-88
2021/11/06 02:31:30;;;;;;;140.20;127.07;;;6.00;99.90;;;;;;5036719;28;20169;-88
2021/11/06 02:34:11;;;;;;;133.30;120.97;;;6.00;99.90;;;;;;5036066;28;20192;-88
2021/11/06 02:36:40;;;;;;;150.85;137.90;;;6.00;99.90;;;;;;5036403;28;20142;-88
2021/11/06 02:39:10;;;;;;;131.45;119.25;;;6.00;99.90;;;;;;5035031;28;20545;-88
2021/11/06 02:41:38;;;;;;;141.10;128.55;;;6.00;99.90;;;;;;5036073;28;20640;-88
2021/11/06 02:44:18;;;;;;;145.18;132.23;;;6.00;99.90;;;;;;5034711;28;20177;-89
2021/11/06 02:46:48;;;;;;;142.43;129.48;;;6.00;99.90;;;;;;5035640;28;20640;-89
2021/11/06 02:49:17;;;;;;;127.47;114.72;;;6.00;99.90;;;;;;5034193;28;20556;-88
2021/11/06 02:51:49;;;;;;;136.50;123.72;;;5.90;99.90;;;;;;5034095;28;20259;-88
2021/11/06 02:54:18;;;;;;;144.20;131.13;;;6.00;99.90;;;;;;5034604;28;20572;-88
2021/11/06 02:56:44;;;;;;;140.23;126.93;;;5.90;99.90;;;;;;5035385;28;20181;-88
2021/11/06 02:59:22;;;;;;;142.63;129.32;;;5.90;99.90;;;;;;5034459;28;20652;-88
2021/11/06 03:01:48;;;;;;;137.70;125.45;;;5.90;99.90;;;;;;5033908;28;20168;-88
2021/11/06 03:04:33;;;;;;;141.93;128.73;;;5.90;99.90;;;;;;5033975;28;20165;-88
2021/11/06 03:07:06;;;;;;;132.13;119.65;;;5.90;99.90;;;;;;5036478;28;20154;-88
2021/11/06 03:09:32;;;;;;;125.63;113.25;;;5.90;99.90;;;;;;5036020;28;20189;-88
2021/11/06 03:11:58;;;;;;;158.65;144.82;;;5.90;99.90;;;;;;5035151;28;20536;-88
2021/11/06 03:14:26;;;;;;;141.85;129.05;;;6.00;99.90;;;;;;5034869;28;20713;-88
2021/11/06 03:16:55;;;;;;;134.45;121.82;;;5.90;99.90;;;;;;5035783;28;20521;-88
2021/11/06 03:19:21;;;;;;;145.63;132.77;;;5.90;99.90;;;;;;5034640;28;20556;-88
2021/11/06 03:21:55;;;;;;;135.05;122.43;;;5.90;99.90;;;;;;5034035;28;20161;-89
2021/11/06 03:24:24;;;;;;;137.77;125.35;;;5.90;99.90;;;;;;5034382;28;20175;-88
2021/11/06 03:26:53;;;;;;;146.15;133.27;;;5.90;99.90;;;;;;5033868;28;20165;-88
2021/11/06 03:29:19;;;;;;;139.00;126.40;;;5.80;99.90;;;;;;5035659;28;20669;-88
2021/11/06 03:31:45;;;;;;;125.23;113.13;;;5.90;99.90;;;;;;5037715;28;20232;-87
2021/11/06 03:34:11;;;;;;;142.30;129.68;;;5.80;99.90;;;;;;5040336;28;20978;-88
2021/11/06 03:36:37;;;;;;;144.17;131.43;;;5.70;99.90;;;;;;5035096;28;20165;-88
2021/11/06 03:39:07;;;;;;;134.27;122.05;;;5.70;99.90;;;;;;5035017;28;20242;-88
2021/11/06 03:41:41;;;;;;;147.73;134.02;;;5.70;99.90;;;;;;5034778;28;20517;-88
2021/11/06 03:44:08;;;;;;;165.63;152.38;;;5.70;99.90;;;;;;5035229;28;20189;-88
2021/11/06 03:46:36;;;;;;;132.95;120.18;;;5.60;99.90;;;;;;5035395;28;20176;-88
2021/11/06 03:49:05;;;;;;;129.52;117.50;;;5.70;99.90;;;;;;5035615;28;20185;-88
2021/11/06 03:51:31;;;;;;;138.88;126.32;;;5.70;99.90;;;;;;5033681;28;20172;-88
2021/11/06 03:54:03;;;;;;;132.80;120.47;;;5.60;99.90;;;;;;5035509;28;20217;-88
2021/11/06 03:56:32;;;;;;;131.70;119.45;;;5.60;99.90;;;;;;5034750;28;20693;-88
2021/11/06 03:58:58;;;;;;;137.45;124.60;;;5.50;99.90;;;;;;5034430;28;20197;-88
2021/11/06 04:01:24;;;;;;;145.50;132.83;;;5.50;99.90;;;;;;5035247;28;20253;-88
2021/11/06 04:03:50;;;;;;;146.30;133.30;;;5.50;99.90;;;;;;5035715;28;20411;-88
2021/11/06 04:06:23;;;;;;;129.90;117.73;;;5.50;99.90;;;;;;5034397;28;20169;-88
2021/11/06 04:08:54;;;;;;;141.50;128.85;;;5.50;99.90;;;;;;5036203;28;20195;-88
2021/11/06 04:11:23;;;;;;;132.25;120.18;;;5.40;99.90;;;;;;5034980;28;20168;-88
2021/11/06 04:13:49;;;;;;;147.20;134.05;;;5.30;99.90;;;;;;5034881;28;20197;-88
2021/11/06 04:16:15;;;;;;;124.23;112.00;;;5.40;99.90;;;;;;5035510;28;20208;-88
2021/11/06 04:18:44;;;;;;;133.20;120.85;;;5.30;99.90;;;;;;5035001;28;20416;-88
2021/11/06 04:21:09;;;;;;;136.95;124.00;;;5.30;99.90;;;;;;5035510;28;20210;-88
2021/11/06 04:23:38;;;;;;;144.47;131.87;;;5.20;99.90;;;;;;5035783;28;20165;-88
2021/11/06 04:26:04;;;;;;;122.20;110.07;;;5.20;99.90;;;;;;5035734;28;20505;-88
2021/11/06 04:28:36;;;;;;;116.72;104.30;;;5.20;99.90;;;;;;5034229;28;20193;-88
2021/11/06 04:31:13;;;;;;;115.65;103.80;;;5.10;99.90;;;;;;5035641;28;20707;-88
2021/11/06 04:33:39;;;;;;;120.20;108.40;;;5.10;99.90;;;;;;5036180;28;20188;-88
2021/11/06 04:36:08;;;;;;;142.80;130.13;;;5.10;99.90;;;;;;5036433;28;20165;-88
2021/11/06 04:38:37;;;;;;;127.38;115.13;;;5.10;99.90;;;;;;5036406;28;20442;-88
2021/11/06 04:41:06;;;;;;;125.38;113.35;;;5.10;99.90;;;;;;5036688;28;20224;-88
2021/11/06 04:43:32;;;;;;;119.47;107.57;;;5.00;99.90;;;;;;5036325;28;20196;-88
2021/11/06 04:46:04;;;;;;;139.73;126.83;;;5.00;99.90;;;;;;5036452;28;20165;-88
2021/11/06 04:48:30;;;;;;;124.30;111.93;;;5.00;99.90;;;;;;5034755;28;20432;-88
2021/11/06 04:50:56;;;;;;;143.60;130.30;;;5.00;99.90;;;;;;5034371;28;20173;-88
2021/11/06 04:53:23;;;;;;;137.27;124.95;;;4.90;99.90;;;;;;5036232;28;20196;-88
2021/11/06 04:55:54;;;;;;;131.35;118.53;;;5.00;99.90;;;;;;5036976;28;20157;-88
2021/11/06 04:58:19;;;;;;;103.60;92.40;;;5.00;99.90;;;;;;5035644;28;20530;-88
2021/11/06 05:00:46;;;;;;;121.67;109.80;;;5.00;99.90;;;;;;5035675;28;20165;-88
2021/11/06 05:03:14;;;;;;;136.85;123.95;;;4.90;99.90;;;;;;5036143;28;20169;-88
2021/11/06 05:05:50;;;;;;;130.68;118.30;;;5.00;99.90;;;;;;5039931;28;20169;-88
2021/11/06 05:08:15;;;;;;;118.03;105.97;;;4.90;99.90;;;;;;5039951;28;20212;-88
2021/11/06 05:10:44;;;;;;;139.87;127.30;;;4.90;99.90;;;;;;5038635;28;20176;-88
2021/11/06 05:13:13;;;;;;;126.68;113.88;;;4.80;99.90;;;;;;5040225;28;20279;-88
2021/11/06 05:15:39;;;;;;;124.07;111.95;;;4.80;99.90;;;;;;5040468;28;20641;-88
2021/11/06 05:18:09;;;;;;;107.10;95.80;;;4.90;99.90;;;;;;5040065;28;20185;-88
2021/11/06 05:20:42;;;;;;;134.52;122.32;;;4.90;99.90;;;;;;5039670;28;20380;-88
2021/11/06 05:23:08;;;;;;;126.35;114.25;;;4.80;99.90;;;;;;5037096;28;20177;-88
2021/11/06 05:25:37;;;;;;;127.82;115.57;;;4.80;99.90;;;;;;5037274;28;20172;-88
2021/11/06 05:28:13;;;;;;;117.43;105.57;;;4.80;99.90;;;;;;5039679;28;20204;-86
2021/11/06 05:30:46;;;;;;;124.40;112.40;;;4.80;99.90;;;;;;5041317;28;20192;-89
2021/11/06 05:33:44;;;;;;;123.75;111.80;;;4.70;99.90;;;;;;5039447;28;20185;-88
2021/11/06 05:36:20;;;;;;;111.20;98.30;;;4.70;99.90;;;;;;5039261;28;20180;-88
2021/11/06 05:38:49;;;;;;;109.75;97.90;;;4.60;99.90;;;;;;5038146;28;20208;-88
2021/11/06 05:41:18;;;;;;;113.53;101.43;;;4.70;99.90;;;;;;5037460;28;20166;-88
2021/11/06 05:43:53;;;;;;;124.13;111.70;;;4.70;99.90;;;;;;5038923;28;20164;-88
2021/11/06 05:46:26;;;;;;;118.43;105.82;;;4.70;99.90;;;;;;5038675;28;20187;-88
2021/11/06 05:48:54;;;;;;;114.95;103.20;;;4.70;99.90;;;;;;5040135;28;20189;-88
2021/11/06 05:51:25;;;;;;;114.97;103.20;;;4.60;99.90;;;;;;5039341;28;20644;-88
2021/11/06 05:56:55;;;;;;;102.35;90.65;;;4.60;99.90;;;;;;5040160;28;20173;-88
2021/11/06 05:59:33;;;;;;;115.38;102.22;;;4.60;99.90;;;;;;5039676;28;20231;-88
2021/11/06 06:01:59;;;;;;;107.25;95.85;;;4.50;99.90;;;;;;5035080;28;20173;-88
2021/11/06 06:04:28;;;;;;;128.53;116.37;;;4.50;99.90;;;;;;5040612;28;20188;-88
2021/11/06 06:07:04;;;;;;;106.82;91.72;;;4.50;99.90;;;;;;5034862;28;20783;-88
2021/11/06 06:09:50;;;;;;;128.73;116.47;;;4.60;99.90;;;;;;5040040;28;20192;-88
2021/11/06 06:12:44;;;;;;;119.15;106.63;;;4.60;99.90;;;;;;5041334;28;20175;-86
2021/11/06 06:15:10;;;;;;;110.43;98.97;;;4.50;99.90;;;;;;5039224;28;20195;-88
2021/11/06 06:18:00;;;;;;;119.93;107.25;;;4.50;99.90;;;;;;5016461;28;20173;-88
2021/11/06 06:20:26;;;;;;;107.63;95.72;;;4.50;99.90;;;;;;5038565;28;20165;-88
2021/11/06 06:23:11;;;;;;;142.85;130.27;;;4.50;99.90;;;;;;5041017;28;20192;-88
2021/11/06 06:25:58;;;;;;;121.50;109.55;;;4.50;99.90;;;;;;5039720;28;20165;-88
2021/11/06 06:28:59;;;;;;;116.22;104.40;;;4.40;99.90;;;;;;5044183;28;20185;-88
2021/11/06 06:31:41;;;;;;;121.80;109.40;;;4.40;99.90;;;;;;4993021;28;20182;-88
2021/11/06 06:34:25;;;;;;;;;;;;;;;;;;;;;
2021/11/06 06:36:57;;;;;;;137.73;125.43;;;4.40;99.90;;;;;;5044286;28;20240;-88
2021/11/06 06:39:35;;;;;;;119.35;107.45;;;4.50;99.90;;;;;;5043030;28;20185;-88
2021/11/06 06:44:34;;;;;;;116.65;104.80;;;4.50;99.90;;;;;;4977656;28;20206;-83
2021/11/06 06:47:00;;;;;;;100.67;85.27;;;4.60;99.90;;;;;;4979293;28;20159;-83
2021/11/06 06:49:26;;;;;;;115.47;103.95;;;4.60;99.90;;;;;;4978944;28;20528;-84
2021/11/06 06:51:52;;;;;;;120.70;108.47;;;4.50;99.90;;;;;;4978401;28;20246;-83
2021/11/06 06:54:18;;;;;;;136.52;123.88;;;4.50;99.90;;;;;;4978928;28;20191;-83
2021/11/06 06:56:44;;;;;;;123.70;111.22;;;4.50;99.90;;;;;;4977586;28;20167;-84
2021/11/06 06:59:12;;;;;;;120.63;108.82;;;4.50;99.90;;;;;;4978403;28;20214;-83
2021/11/06 07:01:38;;;;;;;118.53;106.82;;;4.50;99.90;;;;;;4978615;28;20155;-83
2021/11/06 07:04:04;;;;;;;121.28;109.35;;;4.60;99.90;;;;;;4976848;28;20182;-83
2021/11/06 07:06:30;;;;;;;123.72;111.47;;;4.70;99.90;;;;;;4976677;28;20214;-81
2021/11/06 07:08:59;;;;;;;113.07;100.47;;;4.70;99.90;;;;;;4974928;28;20198;-83
2021/11/06 07:11:27;;;;;;;131.70;119.38;;;4.70;99.90;;;;;;4977092;28;20425;-83
2021/11/06 07:13:55;;;;;;;133.77;120.68;;;4.70;99.90;;;;;;4977921;28;20254;-83
2021/11/06 07:16:21;;;;;;;137.68;125.32;;;4.70;99.90;;;;;;4978277;28;20163;-84
2021/11/06 07:18:49;;;;;;;138.33;125.77;;;4.70;99.90;;;;;;4978165;28;20528;-84
2021/11/06 07:21:15;;;;;;;154.20;141.18;;;4.70;99.90;;;;;;4977624;28;20779;-83
2021/11/06 07:23:41;;;;;;;161.43;147.93;;;4.80;99.90;;;;;;4977674;28;20171;-83
2021/11/06 07:26:07;;;;;;;169.63;156.00;;;4.90;99.90;;;;;;4976597;28;20171;-84
2021/11/06 07:28:33;;;;;;;162.35;149.00;;;5.00;99.90;;;;;;4978488;28;20221;-84
2021/11/06 07:30:59;;;;;;;155.10;141.40;;;5.00;99.90;;;;;;4977760;28;20254;-83
2021/11/06 07:33:25;;;;;;;141.65;128.98;;;5.10;99.90;;;;;;4976360;28;20881;-84
2021/11/06 07:35:51;;;;;;;147.10;134.00;;;5.10;99.90;;;;;;4977642;28;20167;-84
2021/11/06 07:38:16;;;;;;;153.63;140.27;;;5.20;99.90;;;;;;4978424;28;20419;-84
2021/11/06 07:40:45;;;;;;;123.83;111.73;;;5.20;99.90;;;;;;4976334;28;20489;-84
2021/11/06 07:43:11;;;;;;;171.07;157.10;;;5.30;99.90;;;;;;4976877;28;20186;-84
2021/11/06 07:45:38;;;;;;;160.00;146.77;;;5.30;99.90;;;;;;4978201;28;20175;-84
2021/11/06 07:48:04;;;;;;;154.00;140.57;;;5.40;99.90;;;;;;4976172;28;20279;-84
2021/11/06 07:50:30;;;;;;;147.73;134.60;;;5.40;99.90;;;;;;4977545;28;20202;-84
2021/11/06 07:52:57;;;;;;;159.68;146.57;;;5.50;99.90;;;;;;4976629;28;20720;-84
2021/11/06 07:55:23;;;;;;;186.80;172.45;;;5.50;99.90;;;;;;4978150;28;20662;-84
2021/11/06 07:57:49;;;;;;;150.95;137.90;;;5.60;99.90;;;;;;4977246;28;20245;-85
2021/11/06 08:00:18;;;;;;;175.18;161.02;;;5.60;99.90;;;;;;4976529;28;20167;-84
2021/11/06 08:02:45;;;;;;;188.45;174.00;;;5.70;99.90;;;;;;4977364;28;20209;-85
2021/11/06 08:05:13;;;;;;;193.23;178.90;;;5.80;99.90;;;;;;4977562;28;20250;-84
2021/11/06 08:07:40;;;;;;;192.00;177.50;;;5.90;99.90;;;;;;4976940;28;20171;-84
2021/11/06 08:10:13;;;;;;;231.02;214.82;;;5.90;99.90;;;;;;4977158;28;20171;-84
2021/11/06 08:12:40;;;;;;;211.45;195.85;;;6.00;99.90;;;;;;4975862;28;20777;-84
2021/11/06 08:15:11;;;;;;;216.48;200.88;;;6.10;99.90;;;;;;4977197;28;20190;-84
2021/11/06 08:17:37;;;;;;;269.40;251.70;;;6.10;99.90;;;;;;4976940;28;20160;-84
2021/11/06 08:20:04;;;;;;;260.83;243.73;;;6.20;99.90;;;;;;4975811;28;20187;-84
2021/11/06 08:22:34;;;;;;;236.95;221.18;;;6.20;99.90;;;;;;4977091;28;20221;-84
2021/11/06 08:25:00;;;;;;;277.05;259.58;;;6.40;99.90;;;;;;4975415;28;20231;-84
2021/11/06 08:27:26;;;;;;;300.67;282.65;;;6.40;99.90;;;;;;4975740;28;20651;-84
2021/11/06 08:29:52;;;;;;;317.87;299.43;;;6.50;99.90;;;;;;4975620;28;20199;-85
2021/11/06 08:32:18;;;;;;;324.97;306.33;;;6.50;99.90;;;;;;4976581;28;20413;-84
2021/11/06 08:34:43;;;;;;;328.87;309.70;;;6.60;99.90;;;;;;4975590;28;20175;-84
2021/11/06 08:37:09;;;;;;;340.70;320.70;;;6.60;99.90;;;;;;4977374;28;20254;-84
2021/11/06 08:39:35;;;;;;;287.43;270.03;;;6.70;99.90;;;;;;4979500;28;20191;-84
2021/11/06 08:42:03;;;;;;;319.17;300.33;;;6.80;99.90;;;;;;4980928;28;20539;-84
2021/11/06 08:44:32;;;;;;;315.35;297.05;;;6.90;99.90;;;;;;4979021;28;20705;-84
2021/11/06 08:46:58;;;;;;;309.10;291.27;;;6.90;99.90;;;;;;4980839;28;20175;-85
2021/11/06 08:49:24;;;;;;;372.00;351.33;;;7.00;99.90;;;;;;4979584;28;20282;-84
2021/11/06 08:51:52;;;;;;;320.60;302.65;;;7.10;99.90;;;;;;4980805;28;20414;-84
2021/11/06 08:54:19;;;;;;;327.77;309.40;;;7.10;99.90;;;;;;4980650;28;20190;-85
2021/11/06 08:56:46;;;;;;;333.35;314.63;;;7.10;99.90;;;;;;4980220;28;20535;-84
2021/11/06 08:59:14;;;;;;;323.70;305.52;;;7.20;99.90;;;;;;4979884;28;20202;-85
2021/11/06 09:01:40;;;;;;;309.50;291.65;;;7.30;99.90;;;;;;4981090;28;20554;-85
2021/11/06 09:04:06;;;;;;;297.30;279.43;;;7.40;99.90;;;;;;4980872;28;20257;-84
2021/11/06 09:06:34;;;;;;;264.60;248.30;;;7.40;99.90;;;;;;4980186;28;20195;-84
2021/11/06 09:09:11;;;;;;;261.05;244.13;;;7.50;99.90;;;;;;4979412;28;20988;-85
2021/11/06 09:11:38;;;;;;;232.20;216.90;;;7.60;99.90;;;;;;4979686;28;20166;-85
2021/11/06 09:14:04;;;;;;;244.88;228.77;;;7.70;99.90;;;;;;4979878;28;20211;-85
2021/11/06 09:16:30;;;;;;;248.10;232.18;;;7.80;99.90;;;;;;4980154;28;20163;-85
2021/11/06 09:18:57;;;;;;;194.97;180.53;;;7.90;99.90;;;;;;4981501;28;20210;-85
2021/11/06 09:21:25;;;;;;;149.88;137.07;;;7.90;99.90;;;;;;4981952;28;20403;-85
2021/11/06 09:23:54;;;;;;;153.60;140.48;;;8.00;99.90;;;;;;4981939;28;20198;-85
2021/11/06 09:26:21;;;;;;;133.13;120.82;;;8.10;99.90;;;;;;4981760;28;20194;-85
2021/11/06 09:28:48;;;;;;;139.02;126.15;;;8.20;99.90;;;;;;4982183;28;20194;-85
2021/11/06 09:31:15;;;;;;;132.82;120.28;;;8.20;99.90;;;;;;4981225;28;20167;-85
2021/11/06 09:33:43;;;;;;;139.30;126.78;;;8.30;99.90;;;;;;4981266;28;20195;-85
2021/11/06 09:36:10;;;;;;;178.38;164.10;;;8.40;99.90;;;;;;4980858;28;20182;-85
2021/11/06 09:38:37;;;;;;;148.32;135.75;;;8.50;99.90;;;;;;4981168;28;20183;-85
2021/11/06 09:41:07;;;;;;;183.07;169.40;;;8.50;99.90;;;;;;4980476;28;20171;-85
2021/11/06 09:43:35;;;;;;;184.73;170.57;;;8.50;99.90;;;;;;4980836;28;20191;-85
2021/11/06 09:46:01;;;;;;;172.07;158.20;;;8.60;99.90;;;;;;4980867;28;20167;-85
2021/11/06 09:48:29;;;;;;;112.93;101.53;;;8.70;99.90;;;;;;4980436;28;20218;-85
2021/11/06 09:50:59;;;;;;;104.28;86.03;;;8.80;99.90;;;;;;4980911;28;20229;-85
2021/11/06 09:53:28;;;;;;;90.50;60.03;;;8.90;99.90;;;;;;4980028;28;20195;-85
2021/11/06 09:55:55;;;;;;;94.25;71.35;;;9.00;99.90;;;;;;4980707;28;20166;-84
2021/11/06 09:58:21;;;;;;;88.28;57.53;;;9.10;99.90;;;;;;4978042;28;20187;-84
2021/11/06 10:00:48;;;;;;;89.75;66.40;;;9.00;99.90;;;;;;4977560;28;20182;-84
2021/11/06 10:03:16;;;;;;;93.05;65.18;;;9.10;99.90;;;;;;4977905;28;20250;-84
2021/11/06 10:06:26;;;;;;;98.03;78.22;;;9.30;99.90;;;;;;4977633;28;20187;-84
2021/11/06 10:08:58;;;;;;;90.40;64.95;;;9.40;99.90;;;;;;4969418;28;20203;-83
2021/11/06 10:11:30;;;;;;;128.00;116.13;;;9.40;99.90;;;;;;4977862;28;20207;-83
2021/11/06 10:13:59;;;;;;;154.23;141.00;;;9.40;99.90;;;;;;4976593;28;20290;-84
2021/11/06 10:16:38;;;;;;;180.63;166.70;;;9.50;99.90;;;;;;4976205;28;20254;-83
2021/11/06 10:19:10;;;;;;;169.52;156.20;;;9.60;99.90;;;;;;4977683;28;20175;-84
2021/11/06 10:21:45;;;;;;;99.72;73.97;;;9.70;99.90;;;;;;4979426;28;20151;-84
2021/11/06 10:24:12;;;;;;;82.85;39.22;;;9.90;99.90;;;;;;4979088;28;20218;-84
2021/11/06 10:26:39;;;;;;;80.93;34.20;;;9.90;99.90;;;;;;4978782;28;20647;-85
2021/11/06 10:29:11;;;;;;;77.40;28.58;;;10.10;99.90;;;;;;4979202;28;20184;-84
2021/11/06 10:32:02;;;;;;;75.85;25.63;;;10.20;99.90;;;;;;4979056;28;20170;-84
2021/11/06 10:34:34;;;;;;;75.20;21.40;;;10.30;99.90;;;;;;4979119;28;20195;-84
2021/11/06 10:37:11;;;;;;;79.10;35.67;;;10.50;99.90;;;;;;4978890;28;20194;-84
2021/11/06 10:39:37;;;;;;;72.65;19.35;;;10.30;99.90;;;;;;4978475;28;20551;-84
2021/11/06 10:42:15;;;;;;;73.25;19.35;;;10.40;99.90;;;;;;4977795;28;20164;-84
2021/11/06 10:44:43;;;;;;;72.68;18.77;;;10.50;99.90;;;;;;4979752;28;20179;-84
2021/11/06 10:47:15;;;;;;;74.45;19.67;;;10.60;99.90;;;;;;4979302;28;20189;-84
2021/11/06 10:49:44;;;;;;;72.80;19.20;;;10.70;99.90;;;;;;4977330;28;20563;-84
2021/11/06 10:52:16;;;;;;;77.95;25.23;;;10.80;99.90;;;;;;4977993;28;20187;-84
2021/11/06 10:54:58;;;;;;;81.63;42.92;;;10.80;99.90;;;;;;4978069;28;20173;-84
2021/11/06 10:57:27;;;;;;;79.18;35.78;;;11.00;99.90;;;;;;4977737;28;20714;-84
2021/11/06 11:00:11;;;;;;;86.47;59.45;;;11.10;99.90;;;;;;4980179;28;20536;-84
2021/11/06 11:02:40;;;;;;;78.82;32.38;;;11.30;99.90;;;;;;4978136;28;20571;-84
2021/11/06 11:05:35;;;;;;;79.53;30.40;;;11.40;99.90;;;;;;4979703;28;20179;-84
2021/11/06 11:26:13;;;;;;;72.95;17.27;;;12.00;72.10;;;;;;5012118;28;20190;-84
2021/11/06 11:28:40;;;;;;;71.75;20.40;;;12.10;99.90;;;;;;4954502;28;20298;-84
2021/11/06 11:31:07;;;;;;;73.47;23.15;;;12.10;99.90;;;;;;5036614;28;20156;-83
2021/11/06 11:33:50;;;;;;;74.80;24.25;;;12.20;99.90;;;;;;5036659;28;20192;-83
2021/11/06 11:36:31;;;;;;;73.32;22.80;;;12.30;99.90;;;;;;5036033;28;20593;-84
2021/11/06 11:38:59;;;;;;;74.05;25.00;;;12.30;99.90;;;;;;5035539;28;20726;-83
2021/11/06 11:41:43;;;;;;;74.93;24.20;;;12.30;99.90;;;;;;5036497;28;20215;-83
2021/11/06 11:44:33;;;;;;;73.90;23.27;;;12.30;99.90;;;;;;5035297;28;20249;-83
2021/11/06 11:47:16;;;;;;;72.60;20.45;;;12.10;99.90;;;;;;5036304;28;20612;-83
2021/11/06 11:49:49;;;;;;;73.43;24.63;;;12.30;99.90;;;;;;5034543;28;20224;-83
2021/11/06 11:52:32;;;;;;;72.55;22.73;;;12.20;99.90;;;;;;5034741;28;20181;-83
2021/11/06 11:55:01;;;;;;;71.90;21.30;;;12.20;99.90;;;;;;5033937;28;20153;-83
2021/11/06 11:57:28;;;;;;;73.55;22.10;;;12.20;99.90;;;;;;5036290;28;20214;-83
2021/11/06 11:59:55;;;;;;;72.78;22.10;;;12.30;99.90;;;;;;5036364;28;20188;-84
2021/11/06 12:02:28;;;;;;;72.47;21.38;;;12.40;99.90;;;;;;5036121;28;20165;-84
2021/11/06 12:05:16;;;;;;;71.20;19.25;;;12.40;99.90;;;;;;5036750;28;20158;-84
2021/11/06 12:08:02;;;;;;;72.35;22.67;;;12.60;99.90;;;;;;5034990;28;20167;-83
2021/11/06 12:10:27;;;;;;;75.05;26.90;;;12.60;99.90;;;;;;5034411;28;20157;-83
2021/11/06 12:12:54;;;;;;;71.10;19.93;;;12.60;99.90;;;;;;5034951;28;20197;-84
2021/11/06 12:15:43;;;;;;;69.32;15.38;;;12.60;99.90;;;;;;5036043;28;20184;-84
2021/11/06 12:18:34;;;;;;;70.18;16.63;;;12.50;99.90;;;;;;5026269;28;20197;-84
2021/11/06 12:21:27;;;;;;;68.80;13.00;;;12.50;99.90;;;;;;5035325;28;20162;-83
2021/11/06 12:23:53;;;;;;;69.70;16.48;;;12.30;99.90;;;;;;5031639;28;20212;-84
2021/11/06 12:26:31;;;;;;;70.40;17.70;;;12.20;99.90;;;;;;5034201;28;20165;-83
2021/11/06 12:29:06;;;;;;;69.15;14.25;;;12.10;99.90;;;;;;5034431;28;20310;-83
2021/11/06 12:31:38;;;;;;;70.93;17.67;;;12.10;99.90;;;;;;5034440;28;20168;-83
2021/11/06 12:34:06;;;;;;;69.13;14.32;;;12.00;99.90;;;;;;5035261;28;20188;-84
2021/11/06 12:36:39;;;;;;;69.30;14.82;;;12.00;99.90;;;;;;5035054;28;20248;-84
2021/11/06 12:39:05;;;;;;;73.13;25.02;;;12.00;99.90;;;;;;5035287;28;20738;-83
2021/11/06 12:41:33;;;;;;;70.00;16.73;;;12.00;99.90;;;;;;5035163;28;20161;-84
2021/11/06 12:44:07;;;;;;;69.93;16.55;;;11.90;99.90;;;;;;5124042;22;20232;-88
2021/11/06 12:46:36;;;;;;;68.80;12.20;;;11.80;96.70;;;;;;5033612;28;20216;-88
2021/11/06 12:49:09;;;;;;;71.15;20.08;;;11.70;99.90;;;;;;5031976;28;20189;-88
2021/11/06 12:51:48;;;;;;;71.47;20.60;;;11.80;99.90;;;;;;5031803;28;20189;-88
2021/11/06 12:54:14;;;;;;;68.28;12.70;;;11.90;99.90;;;;;;5031774;28;20220;-88
2021/11/06 12:56:52;;;;;;;70.53;15.20;;;11.90;99.90;;;;;;5032559;28;20558;-88
2021/11/06 12:59:26;;;;;;;69.68;15.68;;;11.90;99.90;;;;;;5031463;28;20190;-88
2021/11/06 13:02:04;;;;;;;71.45;19.17;;;11.90;99.90;;;;;;5030510;28;20169;-88
2021/11/06 13:04:46;;;;;;;;;;;;;;;;;;;;;